METAR Data
IDs: Format: Raw Decoded Include TAF

Data at: 0130 UTC 24 Oct 2019

METAR for:KDEH (Decorah Muni, IA, US)
Text:KDEH 240115Z AUTO 25003KT 10SM OVC042 03/03 A3002 RMK AO2
Temperature: 3.0°C ( 37°F)
Dewpoint: 3.0°C ( 37°F) [RH = 100%]
Pressure (altimeter):30.02 inches Hg (1016.7 mb)
Winds:from the WSW (250 degrees) at 3 MPH (3 knots; 1.5 m/s)
Visibility:10 or more sm (16+ km)
Ceiling:4200 feet AGL
Clouds: overcast cloud deck at 4200 feet AGL
QC Flag:automated observation with no human augmentation